Terminal Aerodrome Forecast
Issued by NWS Binghamton, NY

Home | Current Version | Previous Version | Text Only | Print | Product List | Glossary On
Versions: 1 2 3 4 5 6 7 8 9 10 11 12 13 14 15 16
310
FTUS41 KBGM 281738
TAFSYR
TAF
KSYR 281738Z 2818/2918 21010KT P6SM BKN050
      TEMPO 2820/2823 4SM TSRA BR OVC025CB
     FM290000 20008KT P6SM SCT040 BKN070
     FM290700 29006KT P6SM BKN015
     FM291500 32008KT P6SM SCT025 BKN040=

USA.gov is the U.S. government's official web portal to all federal, state and local government web resources and services.